sensor_id;sensor_type;location;lat;lon;timestamp;pressure;altitude;pressure_sealevel;temperature;humidity
11017;BME280;54687;50.800;6.772;2023-04-02T00:00:17;61101.28;;;-144.06;70.94
11017;BME280;54687;50.800;6.772;2023-04-02T00:02:46;61122.25;;;-144.06;71.00
11017;BME280;54687;50.800;6.772;2023-04-02T00:05:36;61111.78;;;-144.06;71.22
11017;BME280;54687;50.800;6.772;2023-04-02T00:08:34;61097.09;;;-144.06;71.48
11017;BME280;54687;50.800;6.772;2023-04-02T00:11:05;61084.53;;;-144.06;72.20
11017;BME280;54687;50.800;6.772;2023-04-02T00:13:34;61097.09;;;-144.06;71.71
11017;BME280;54687;50.800;6.772;2023-04-02T00:16:03;61092.91;;;-144.06;72.08
11017;BME280;54687;50.800;6.772;2023-04-02T00:18:31;61134.84;;;-144.06;72.04
11017;BME280;54687;50.800;6.772;2023-04-02T00:21:05;61082.44;;;-144.06;72.40
11017;BME280;54687;50.800;6.772;2023-04-02T00:23:35;61126.44;;;-144.06;72.37
11017;BME280;54687;50.800;6.772;2023-04-02T00:26:20;61130.66;;;-144.06;72.97
11017;BME280;54687;50.800;6.772;2023-04-02T00:28:47;61084.53;;;-144.06;73.08
11017;BME280;54687;50.800;6.772;2023-04-02T00:31:16;61092.91;;;-144.06;73.21
11017;BME280;54687;50.800;6.772;2023-04-02T00:33:44;61113.88;;;-144.06;73.43
11017;BME280;54687;50.800;6.772;2023-04-02T00:36:11;61088.72;;;-144.06;73.01
11017;BME280;54687;50.800;6.772;2023-04-02T00:38:38;61059.38;;;-144.06;73.06
11017;BME280;54687;50.800;6.772;2023-04-02T00:41:15;61107.59;;;-144.06;73.04
11017;BME280;54687;50.800;6.772;2023-04-02T00:43:45;61101.28;;;-144.06;73.10
11017;BME280;54687;50.800;6.772;2023-04-02T00:46:17;61122.25;;;-144.06;72.67
11017;BME280;54687;50.800;6.772;2023-04-02T00:48:49;61109.69;;;-144.06;72.99
11017;BME280;54687;50.800;6.772;2023-04-02T00:51:22;61105.50;;;-144.06;72.76
11017;BME280;54687;50.800;6.772;2023-04-02T00:53:51;61088.72;;;-144.06;72.74
11017;BME280;54687;50.800;6.772;2023-04-02T00:56:23;61111.78;;;-144.06;72.45
11017;BME280;54687;50.800;6.772;2023-04-02T00:58:52;61111.78;;;-144.06;72.48
11017;BME280;54687;50.800;6.772;2023-04-02T01:01:23;61157.91;;;-144.06;72.42
11017;BME280;54687;50.800;6.772;2023-04-02T01:03:55;61069.84;;;-144.06;72.27
11017;BME280;54687;50.800;6.772;2023-04-02T01:06:25;61109.69;;;-144.06;71.98
11017;BME280;54687;50.800;6.772;2023-04-02T01:09:14;61130.66;;;-144.06;71.63
11017;BME280;54687;50.800;6.772;2023-04-02T01:12:10;61120.16;;;-144.06;71.17
11017;BME280;54687;50.800;6.772;2023-04-02T01:14:49;61092.91;;;-144.06;71.05
11017;BME280;54687;50.800;6.772;2023-04-02T01:17:31;61105.50;;;-144.06;70.51
11017;BME280;54687;50.800;6.772;2023-04-02T01:23:12;61099.19;;;-144.06;70.46
11017;BME280;54687;50.800;6.772;2023-04-02T01:25:44;61097.09;;;-144.06;70.18
11017;BME280;54687;50.800;6.772;2023-04-02T01:28:17;61080.34;;;-144.06;70.17
11017;BME280;54687;50.800;6.772;2023-04-02T01:30:50;61113.88;;;-144.06;70.17
11017;BME280;54687;50.800;6.772;2023-04-02T01:33:20;61122.25;;;-144.06;69.58
11017;BME280;54687;50.800;6.772;2023-04-02T01:35:52;61149.50;;;-144.06;69.83
11017;BME280;54687;50.800;6.772;2023-04-02T01:38:26;61109.69;;;-144.06;70.61
11017;BME280;54687;50.800;6.772;2023-04-02T01:40:59;61101.28;;;-144.06;70.29
11017;BME280;54687;50.800;6.772;2023-04-02T01:43:32;61149.50;;;-144.06;70.85
11017;BME280;54687;50.800;6.772;2023-04-02T01:46:21;61095.00;;;-144.06;71.25
11017;BME280;54687;50.800;6.772;2023-04-02T01:48:49;61128.53;;;-144.06;72.03
11017;BME280;54687;50.800;6.772;2023-04-02T01:51:25;61059.38;;;-144.06;72.68
11017;BME280;54687;50.800;6.772;2023-04-02T01:53:52;61090.81;;;-144.06;72.64
11017;BME280;54687;50.800;6.772;2023-04-02T01:56:19;61130.66;;;-144.06;73.00
11017;BME280;54687;50.800;6.772;2023-04-02T01:58:47;61141.13;;;-144.06;72.76
11017;BME280;54687;50.800;6.772;2023-04-02T02:01:17;61097.09;;;-144.06;73.26
11017;BME280;54687;50.800;6.772;2023-04-02T02:03:45;61132.75;;;-144.06;73.35
11017;BME280;54687;50.800;6.772;2023-04-02T02:06:13;61170.47;;;-144.06;72.69
11017;BME280;54687;50.800;6.772;2023-04-02T02:08:45;61090.81;;;-144.06;73.33
11017;BME280;54687;50.800;6.772;2023-04-02T02:11:14;61160.00;;;-144.06;73.40
11017;BME280;54687;50.800;6.772;2023-04-02T02:13:45;61155.81;;;-144.06;73.30
11017;BME280;54687;50.800;6.772;2023-04-02T02:16:16;61128.53;;;-144.06;73.69
11017;BME280;54687;50.800;6.772;2023-04-02T02:18:45;61134.84;;;-144.06;73.75
11017;BME280;54687;50.800;6.772;2023-04-02T02:21:20;61143.22;;;-144.06;72.84
11017;BME280;54687;50.800;6.772;2023-04-02T02:23:49;61153.69;;;-144.06;72.56
11017;BME280;54687;50.800;6.772;2023-04-02T02:26:16;61126.44;;;-144.06;72.52
11017;BME280;54687;50.800;6.772;2023-04-02T02:28:45;61139.03;;;-144.06;72.26
11017;BME280;54687;50.800;6.772;2023-04-02T02:31:19;61141.13;;;-144.06;72.76
11017;BME280;54687;50.800;6.772;2023-04-02T02:33:50;61160.00;;;-144.06;72.86
11017;BME280;54687;50.800;6.772;2023-04-02T02:36:21;61107.59;;;-144.06;71.86
11017;BME280;54687;50.800;6.772;2023-04-02T02:38:53;61105.50;;;-144.06;72.20
11017;BME280;54687;50.800;6.772;2023-04-02T02:41:25;61130.66;;;-144.06;72.02
11017;BME280;54687;50.800;6.772;2023-04-02T02:43:58;61122.25;;;-144.06;71.86
11017;BME280;54687;50.800;6.772;2023-04-02T02:46:28;61113.88;;;-144.06;71.91
11017;BME280;54687;50.800;6.772;2023-04-02T02:48:57;61143.22;;;-144.06;71.81
11017;BME280;54687;50.800;6.772;2023-04-02T02:51:27;61134.84;;;-144.06;71.52
11017;BME280;54687;50.800;6.772;2023-04-02T02:53:59;61132.75;;;-144.06;71.00
11017;BME280;54687;50.800;6.772;2023-04-02T02:56:29;61080.34;;;-144.06;70.95
11017;BME280;54687;50.800;6.772;2023-04-02T02:58:57;61174.66;;;-144.06;70.58
11017;BME280;54687;50.800;6.772;2023-04-02T03:01:28;61126.44;;;-144.06;70.23
11017;BME280;54687;50.800;6.772;2023-04-02T03:03:56;61113.88;;;-144.06;70.43
11017;BME280;54687;50.800;6.772;2023-04-02T03:06:23;61084.53;;;-144.06;70.75
11017;BME280;54687;50.800;6.772;2023-04-02T03:08:52;61134.84;;;-144.06;70.13
11017;BME280;54687;50.800;6.772;2023-04-02T03:11:28;61147.41;;;-144.06;69.82
11017;BME280;54687;50.800;6.772;2023-04-02T03:14:04;61147.41;;;-144.06;69.04
11017;BME280;54687;50.800;6.772;2023-04-02T03:16:41;61151.59;;;-144.06;69.33
11017;BME280;54687;50.800;6.772;2023-04-02T03:19:19;61126.44;;;-144.06;68.85
11017;BME280;54687;50.800;6.772;2023-04-02T03:21:52;61097.09;;;-144.06;68.74
11017;BME280;54687;50.800;6.772;2023-04-02T03:24:27;61118.06;;;-144.06;68.18
11017;BME280;54687;50.800;6.772;2023-04-02T03:27:00;61126.44;;;-144.06;68.11
11017;BME280;54687;50.800;6.772;2023-04-02T03:29:30;61109.69;;;-144.06;67.96
11017;BME280;54687;50.800;6.772;2023-04-02T03:32:03;61090.81;;;-144.06;67.74
11017;BME280;54687;50.800;6.772;2023-04-02T03:34:33;61126.44;;;-144.06;67.46
11017;BME280;54687;50.800;6.772;2023-04-02T03:37:07;61122.25;;;-144.06;67.00
11017;BME280;54687;50.800;6.772;2023-04-02T03:39:38;61084.53;;;-144.06;67.01
11017;BME280;54687;50.800;6.772;2023-04-02T03:42:11;61134.84;;;-144.06;67.05
11017;BME280;54687;50.800;6.772;2023-04-02T03:44:44;61088.72;;;-144.06;66.71
11017;BME280;54687;50.800;6.772;2023-04-02T03:47:17;61105.50;;;-144.06;66.54
11017;BME280;54687;50.800;6.772;2023-04-02T03:49:47;61118.06;;;-144.06;66.32
11017;BME280;54687;50.800;6.772;2023-04-02T03:52:20;61124.34;;;-144.06;66.14
11017;BME280;54687;50.800;6.772;2023-04-02T03:54:48;61105.50;;;-144.06;66.34
11017;BME280;54687;50.800;6.772;2023-04-02T03:57:23;61097.09;;;-144.06;66.04
11017;BME280;54687;50.800;6.772;2023-04-02T03:59:56;61122.25;;;-144.06;66.05
11017;BME280;54687;50.800;6.772;2023-04-02T04:02:33;61097.09;;;-144.06;66.23
11017;BME280;54687;50.800;6.772;2023-04-02T04:05:02;61139.03;;;-144.06;66.04
11017;BME280;54687;50.800;6.772;2023-04-02T04:07:32;61126.44;;;-144.06;65.87
11017;BME280;54687;50.800;6.772;2023-04-02T04:10:01;61090.81;;;-144.06;65.87
11017;BME280;54687;50.800;6.772;2023-04-02T04:12:30;61134.84;;;-144.06;65.74
11017;BME280;54687;50.800;6.772;2023-04-02T04:15:01;61109.69;;;-144.06;65.38
11017;BME280;54687;50.800;6.772;2023-04-02T04:17:36;61113.88;;;-144.06;65.15
11017;BME280;54687;50.800;6.772;2023-04-02T04:20:16;61118.06;;;-144.06;65.26
11017;BME280;54687;50.800;6.772;2023-04-02T04:22:47;61080.34;;;-144.06;65.11
11017;BME280;54687;50.800;6.772;2023-04-02T04:25:19;61097.09;;;-144.06;65.11
11017;BME280;54687;50.800;6.772;2023-04-02T04:27:57;61107.59;;;-144.06;65.29
11017;BME280;54687;50.800;6.772;2023-04-02T04:30:38;61160.00;;;-144.06;65.04
11017;BME280;54687;50.800;6.772;2023-04-02T04:33:15;61101.28;;;-144.06;65.04
11017;BME280;54687;50.800;6.772;2023-04-02T04:35:49;61105.50;;;-144.06;64.99
11017;BME280;54687;50.800;6.772;2023-04-02T04:38:19;61128.53;;;-144.06;64.95
11017;BME280;54687;50.800;6.772;2023-04-02T04:40:54;61147.41;;;-144.06;65.14
11017;BME280;54687;50.800;6.772;2023-04-02T04:43:28;61088.72;;;-144.06;65.48
11017;BME280;54687;50.800;6.772;2023-04-02T04:45:59;61105.50;;;-144.06;65.79
11017;BME280;54687;50.800;6.772;2023-04-02T04:48:33;61143.22;;;-144.06;65.84
11017;BME280;54687;50.800;6.772;2023-04-02T04:51:05;61103.38;;;-144.06;65.75
11017;BME280;54687;50.800;6.772;2023-04-02T04:53:44;61151.59;;;-144.06;66.00
11017;BME280;54687;50.800;6.772;2023-04-02T04:56:12;61084.53;;;-144.06;65.65
11017;BME280;54687;50.800;6.772;2023-04-02T04:58:47;61103.38;;;-144.06;65.65
11017;BME280;54687;50.800;6.772;2023-04-02T05:01:18;61084.53;;;-144.06;65.63
11017;BME280;54687;50.800;6.772;2023-04-02T05:03:50;61082.44;;;-144.06;65.97
11017;BME280;54687;50.800;6.772;2023-04-02T05:06:30;61132.75;;;-144.06;65.88
11017;BME280;54687;50.800;6.772;2023-04-02T05:09:03;61113.88;;;-144.06;66.11
11017;BME280;54687;50.800;6.772;2023-04-02T05:11:36;61149.50;;;-144.06;65.92
11017;BME280;54687;50.800;6.772;2023-04-02T05:14:06;61088.72;;;-144.06;65.87
11017;BME280;54687;50.800;6.772;2023-04-02T05:16:40;61130.66;;;-144.06;66.37
11017;BME280;54687;50.800;6.772;2023-04-02T05:19:13;61134.84;;;-144.06;67.11
11017;BME280;54687;50.800;6.772;2023-04-02T05:21:46;61113.88;;;-144.06;67.16
11017;BME280;54687;50.800;6.772;2023-04-02T05:24:32;61105.50;;;-144.06;66.94
11017;BME280;54687;50.800;6.772;2023-04-02T05:27:11;61090.81;;;-144.06;66.76
11017;BME280;54687;50.800;6.772;2023-04-02T05:29:43;61118.06;;;-144.06;67.10
11017;BME280;54687;50.800;6.772;2023-04-02T05:32:15;61084.53;;;-144.06;66.83
11017;BME280;54687;50.800;6.772;2023-04-02T05:34:48;61105.50;;;-144.06;66.57
11017;BME280;54687;50.800;6.772;2023-04-02T05:37:18;61107.59;;;-144.06;66.46
11017;BME280;54687;50.800;6.772;2023-04-02T05:39:51;61111.78;;;-144.06;66.25
11017;BME280;54687;50.800;6.772;2023-04-02T05:42:21;61109.69;;;-144.06;66.07
11017;BME280;54687;50.800;6.772;2023-04-02T05:44:58;61134.84;;;-144.06;65.90
11017;BME280;54687;50.800;6.772;2023-04-02T05:47:30;61185.16;;;-144.06;65.95
11017;BME280;54687;50.800;6.772;2023-04-02T05:50:13;61143.22;;;-144.06;65.79
11017;BME280;54687;50.800;6.772;2023-04-02T05:52:44;61147.41;;;-144.06;65.92
11017;BME280;54687;50.800;6.772;2023-04-02T05:55:29;61134.84;;;-144.06;66.27
11017;BME280;54687;50.800;6.772;2023-04-02T05:58:03;61130.66;;;-144.06;66.23
11017;BME280;54687;50.800;6.772;2023-04-02T06:00:48;61111.78;;;-144.06;65.70
11017;BME280;54687;50.800;6.772;2023-04-02T06:03:23;61115.97;;;-144.06;65.73
11017;BME280;54687;50.800;6.772;2023-04-02T06:05:55;61113.88;;;-144.06;66.00
11017;BME280;54687;50.800;6.772;2023-04-02T06:08:26;61120.16;;;-144.06;66.07
11017;BME280;54687;50.800;6.772;2023-04-02T06:11:00;61105.50;;;-144.06;65.75
11017;BME280;54687;50.800;6.772;2023-04-02T06:13:30;61149.50;;;-144.06;66.04
11017;BME280;54687;50.800;6.772;2023-04-02T06:15:57;61122.25;;;-144.06;66.17
11017;BME280;54687;50.800;6.772;2023-04-02T06:18:24;61130.66;;;-144.06;66.17
11017;BME280;54687;50.800;6.772;2023-04-02T06:20:54;61143.22;;;-144.06;65.94
11017;BME280;54687;50.800;6.772;2023-04-02T06:23:23;61113.88;;;-144.06;65.51
11017;BME280;54687;50.800;6.772;2023-04-02T06:26:00;61132.75;;;-144.06;66.34
11017;BME280;54687;50.800;6.772;2023-04-02T06:28:34;61141.13;;;-144.06;66.39
11017;BME280;54687;50.800;6.772;2023-04-02T06:31:07;61160.00;;;-144.06;65.64
11017;BME280;54687;50.800;6.772;2023-04-02T06:33:34;61164.19;;;-144.06;65.73
11017;BME280;54687;50.800;6.772;2023-04-02T06:36:03;61136.94;;;-144.06;65.81
11017;BME280;54687;50.800;6.772;2023-04-02T06:38:34;61084.53;;;-144.06;65.58
11017;BME280;54687;50.800;6.772;2023-04-02T06:41:04;61126.44;;;-144.06;65.31
11017;BME280;54687;50.800;6.772;2023-04-02T06:43:35;61120.16;;;-144.06;65.26
11017;BME280;54687;50.800;6.772;2023-04-02T06:46:07;61147.41;;;-144.06;65.36
11017;BME280;54687;50.800;6.772;2023-04-02T06:48:36;61141.13;;;-144.06;65.88
11017;BME280;54687;50.800;6.772;2023-04-02T06:51:07;61109.69;;;-144.06;66.17
11017;BME280;54687;50.800;6.772;2023-04-02T06:53:36;61095.00;;;-144.06;66.55
11017;BME280;54687;50.800;6.772;2023-04-02T06:56:09;61122.25;;;-144.06;67.09
11017;BME280;54687;50.800;6.772;2023-04-02T06:58:40;61130.66;;;-144.06;67.35
11017;BME280;54687;50.800;6.772;2023-04-02T07:01:11;61105.50;;;-144.06;66.66
11017;BME280;54687;50.800;6.772;2023-04-02T07:03:41;61155.81;;;-144.06;66.36
11017;BME280;54687;50.800;6.772;2023-04-02T07:06:13;61124.34;;;-144.06;67.11
11017;BME280;54687;50.800;6.772;2023-04-02T07:08:40;61189.34;;;-144.06;66.98
11017;BME280;54687;50.800;6.772;2023-04-02T07:11:08;61139.03;;;-144.06;67.09
11017;BME280;54687;50.800;6.772;2023-04-02T07:13:35;61160.00;;;-144.06;67.48
11017;BME280;54687;50.800;6.772;2023-04-02T07:16:01;61170.47;;;-144.06;67.37
11017;BME280;54687;50.800;6.772;2023-04-02T07:18:30;61101.28;;;-144.06;67.49
11017;BME280;54687;50.800;6.772;2023-04-02T07:20:57;61151.59;;;-144.06;67.10
11017;BME280;54687;50.800;6.772;2023-04-02T07:23:26;61147.41;;;-144.06;66.95
11017;BME280;54687;50.800;6.772;2023-04-02T07:25:54;61113.88;;;-144.06;66.49
11017;BME280;54687;50.800;6.772;2023-04-02T07:28:21;61132.75;;;-144.06;67.05
11017;BME280;54687;50.800;6.772;2023-04-02T07:30:49;61122.25;;;-144.06;66.76
11017;BME280;54687;50.800;6.772;2023-04-02T07:33:18;61149.50;;;-144.06;65.92
11017;BME280;54687;50.800;6.772;2023-04-02T07:35:45;61143.22;;;-144.06;66.16
11017;BME280;54687;50.800;6.772;2023-04-02T07:38:12;61126.44;;;-144.06;65.61
11017;BME280;54687;50.800;6.772;2023-04-02T07:40:40;61160.00;;;-144.06;65.60
11017;BME280;54687;50.800;6.772;2023-04-02T07:43:07;61168.38;;;-144.06;65.56
11017;BME280;54687;50.800;6.772;2023-04-02T07:45:34;61136.94;;;-144.06;65.41
11017;BME280;54687;50.800;6.772;2023-04-02T07:48:03;61166.28;;;-144.06;64.50
11017;BME280;54687;50.800;6.772;2023-04-02T07:50:30;61157.91;;;-144.06;64.01
11017;BME280;54687;50.800;6.772;2023-04-02T07:52:57;61101.28;;;-144.06;64.12
11017;BME280;54687;50.800;6.772;2023-04-02T07:55:24;61122.25;;;-144.06;64.16
11017;BME280;54687;50.800;6.772;2023-04-02T07:57:54;61145.31;;;-144.06;63.78
11017;BME280;54687;50.800;6.772;2023-04-02T08:00:21;61145.31;;;-144.06;63.78
11017;BME280;54687;50.800;6.772;2023-04-02T08:02:48;61105.50;;;-144.06;63.24
11017;BME280;54687;50.800;6.772;2023-04-02T08:05:15;61118.06;;;-144.06;63.37
11017;BME280;54687;50.800;6.772;2023-04-02T08:07:43;61136.94;;;-144.06;63.33
11017;BME280;54687;50.800;6.772;2023-04-02T08:10:10;61132.75;;;-144.06;63.85
11017;BME280;54687;50.800;6.772;2023-04-02T08:12:37;61120.16;;;-144.06;63.85
11017;BME280;54687;50.800;6.772;2023-04-02T08:15:07;61134.84;;;-144.06;63.57
11017;BME280;54687;50.800;6.772;2023-04-02T08:17:33;61113.88;;;-144.06;63.04
11017;BME280;54687;50.800;6.772;2023-04-02T08:20:00;61118.06;;;-144.06;62.61
11017;BME280;54687;50.800;6.772;2023-04-02T08:22:31;61151.59;;;-144.06;62.64
11017;BME280;54687;50.800;6.772;2023-04-02T08:24:58;61160.00;;;-144.06;62.47
11017;BME280;54687;50.800;6.772;2023-04-02T08:27:25;61124.34;;;-144.06;62.87
11017;BME280;54687;50.800;6.772;2023-04-02T08:29:53;61080.34;;;-144.06;62.12
11017;BME280;54687;50.800;6.772;2023-04-02T08:32:21;61128.53;;;-144.06;62.71
11017;BME280;54687;50.800;6.772;2023-04-02T08:34:48;61097.09;;;-144.06;62.86
11017;BME280;54687;50.800;6.772;2023-04-02T08:37:15;61155.81;;;-144.06;62.39
11017;BME280;54687;50.800;6.772;2023-04-02T08:39:42;61113.88;;;-144.06;62.34
11017;BME280;54687;50.800;6.772;2023-04-02T08:42:18;61113.88;;;-144.06;62.19
11017;BME280;54687;50.800;6.772;2023-04-02T08:44:53;61141.13;;;-144.06;62.67
11017;BME280;54687;50.800;6.772;2023-04-02T08:47:31;61189.34;;;-144.06;62.37
11017;BME280;54687;50.800;6.772;2023-04-02T08:50:03;61151.59;;;-144.06;61.99
11017;BME280;54687;50.800;6.772;2023-04-02T08:52:36;61113.88;;;-144.06;62.10
11017;BME280;54687;50.800;6.772;2023-04-02T08:55:15;61157.91;;;-144.06;62.25
11017;BME280;54687;50.800;6.772;2023-04-02T08:57:46;61126.44;;;-144.06;62.10
11017;BME280;54687;50.800;6.772;2023-04-02T09:00:26;61166.28;;;-144.06;62.12
11017;BME280;54687;50.800;6.772;2023-04-02T09:02:57;61109.69;;;-144.06;61.71
11017;BME280;54687;50.800;6.772;2023-04-02T09:05:28;61130.66;;;-144.06;61.49
11017;BME280;54687;50.800;6.772;2023-04-02T09:07:58;61118.06;;;-144.06;60.69
11017;BME280;54687;50.800;6.772;2023-04-02T09:10:34;61105.50;;;-144.06;61.12
11017;BME280;54687;50.800;6.772;2023-04-02T09:13:04;61134.84;;;-144.06;60.50
11017;BME280;54687;50.800;6.772;2023-04-02T09:15:34;61147.41;;;-144.06;60.70
11017;BME280;54687;50.800;6.772;2023-04-02T09:18:12;61115.97;;;-144.06;60.21
11017;BME280;54687;50.800;6.772;2023-04-02T09:20:39;61109.69;;;-144.06;60.47
11017;BME280;54687;50.800;6.772;2023-04-02T09:23:08;61157.91;;;-144.06;60.28
11017;BME280;54687;50.800;6.772;2023-04-02T09:25:42;61130.66;;;-144.06;59.96
11017;BME280;54687;50.800;6.772;2023-04-02T09:28:10;61126.44;;;-144.06;59.62
11017;BME280;54687;50.800;6.772;2023-04-02T09:30:49;61076.13;;;-144.06;59.70
11017;BME280;54687;50.800;6.772;2023-04-02T09:33:40;61109.69;;;-144.06;59.47
11017;BME280;54687;50.800;6.772;2023-04-02T09:36:18;61057.28;;;-144.06;59.58
11017;BME280;54687;50.800;6.772;2023-04-02T09:38:57;61115.97;;;-144.06;60.05
11017;BME280;54687;50.800;6.772;2023-04-02T09:41:27;61107.59;;;-144.06;60.03
11017;BME280;54687;50.800;6.772;2023-04-02T09:44:13;61139.03;;;-144.06;59.70
11017;BME280;54687;50.800;6.772;2023-04-02T09:46:48;61122.25;;;-144.06;59.57
11017;BME280;54687;50.800;6.772;2023-04-02T09:49:16;61086.63;;;-144.06;59.45
11017;BME280;54687;50.800;6.772;2023-04-02T09:51:44;61122.25;;;-144.06;58.59
11017;BME280;54687;50.800;6.772;2023-04-02T09:54:13;61088.72;;;-144.06;59.06
11017;BME280;54687;50.800;6.772;2023-04-02T09:56:58;61136.94;;;-144.06;59.25
11017;BME280;54687;50.800;6.772;2023-04-02T09:59:26;61120.16;;;-144.06;59.08
11017;BME280;54687;50.800;6.772;2023-04-02T10:01:57;61105.50;;;-144.06;58.18
11017;BME280;54687;50.800;6.772;2023-04-02T10:04:35;61101.28;;;-144.06;58.26
11017;BME280;54687;50.800;6.772;2023-04-02T10:07:04;61124.34;;;-144.06;58.13
11017;BME280;54687;50.800;6.772;2023-04-02T10:09:33;61082.44;;;-144.06;57.87
11017;BME280;54687;50.800;6.772;2023-04-02T10:12:03;61103.38;;;-144.06;58.17
11017;BME280;54687;50.800;6.772;2023-04-02T10:14:34;61095.00;;;-144.06;57.75
11017;BME280;54687;50.800;6.772;2023-04-02T10:17:08;61134.84;;;-144.06;57.18
11017;BME280;54687;50.800;6.772;2023-04-02T10:19:40;61107.59;;;-144.06;56.94
11017;BME280;54687;50.800;6.772;2023-04-02T10:22:12;61113.88;;;-144.06;56.54
11017;BME280;54687;50.800;6.772;2023-04-02T10:24:39;61115.97;;;-144.06;56.70
11017;BME280;54687;50.800;6.772;2023-04-02T10:27:13;61151.59;;;-144.06;56.66
11017;BME280;54687;50.800;6.772;2023-04-02T10:29:57;61113.88;;;-144.06;55.85
11017;BME280;54687;50.800;6.772;2023-04-02T10:32:32;61065.66;;;-144.06;55.97
11017;BME280;54687;50.800;6.772;2023-04-02T10:35:08;61134.84;;;-144.06;56.27
11017;BME280;54687;50.800;6.772;2023-04-02T10:40:47;61090.81;;;-144.06;56.29
11017;BME280;54687;50.800;6.772;2023-04-02T10:43:33;61141.13;;;-144.06;56.21
11017;BME280;54687;50.800;6.772;2023-04-02T10:46:06;61130.66;;;-144.06;55.79
11017;BME280;54687;50.800;6.772;2023-04-02T10:48:44;61090.81;;;-144.06;55.64
11017;BME280;54687;50.800;6.772;2023-04-02T10:51:28;61130.66;;;-144.06;55.63
11017;BME280;54687;50.800;6.772;2023-04-02T10:54:02;61088.72;;;-144.06;56.04
11017;BME280;54687;50.800;6.772;2023-04-02T10:56:33;61118.06;;;-144.06;55.55
11017;BME280;54687;50.800;6.772;2023-04-02T10:59:02;61055.19;;;-144.06;56.04
11017;BME280;54687;50.800;6.772;2023-04-02T11:01:32;61080.34;;;-144.06;55.97
11017;BME280;54687;50.800;6.772;2023-04-02T11:04:04;61105.50;;;-144.06;55.35
11017;BME280;54687;50.800;6.772;2023-04-02T11:06:37;61059.38;;;-144.06;55.78
11017;BME280;54687;50.800;6.772;2023-04-02T11:09:14;61088.72;;;-144.06;55.56
11017;BME280;54687;50.800;6.772;2023-04-02T11:11:43;61080.34;;;-144.06;55.39
11017;BME280;54687;50.800;6.772;2023-04-02T11:14:12;61130.66;;;-144.06;55.22
11017;BME280;54687;50.800;6.772;2023-04-02T11:16:41;61088.72;;;-144.06;54.68
11017;BME280;54687;50.800;6.772;2023-04-02T11:19:24;61126.44;;;-144.06;55.16
11017;BME280;54687;50.800;6.772;2023-04-02T11:21:54;61118.06;;;-144.06;55.28
11017;BME280;54687;50.800;6.772;2023-04-02T11:24:24;61082.44;;;-144.06;55.27
11017;BME280;54687;50.800;6.772;2023-04-02T11:27:03;61111.78;;;-144.06;55.38
11017;BME280;54687;50.800;6.772;2023-04-02T11:29:32;61088.72;;;-144.06;55.16
11017;BME280;54687;50.800;6.772;2023-04-02T11:32:14;61105.50;;;-144.06;55.23
11017;BME280;54687;50.800;6.772;2023-04-02T11:35:00;61071.94;;;-144.06;54.91
11017;BME280;54687;50.800;6.772;2023-04-02T11:37:34;61088.72;;;-144.06;54.65
11017;BME280;54687;50.800;6.772;2023-04-02T11:42:49;61105.50;;;-144.06;54.69
11017;BME280;54687;50.800;6.772;2023-04-02T11:45:53;61067.75;;;-144.06;54.45
11017;BME280;54687;50.800;6.772;2023-04-02T11:48:28;61109.69;;;-144.06;54.31
11017;BME280;54687;50.800;6.772;2023-04-02T11:50:56;61097.09;;;-144.06;53.90
11017;BME280;54687;50.800;6.772;2023-04-02T11:53:29;61118.06;;;-144.06;53.83
11017;BME280;54687;50.800;6.772;2023-04-02T11:56:07;61090.81;;;-144.06;53.69
11017;BME280;54687;50.800;6.772;2023-04-02T11:58:46;61101.28;;;-144.06;53.64
11017;BME280;54687;50.800;6.772;2023-04-02T12:01:34;61065.66;;;-144.06;53.47
11017;BME280;54687;50.800;6.772;2023-04-02T12:07:30;61067.75;;;-144.06;52.65
11017;BME280;54687;50.800;6.772;2023-04-02T12:10:05;61097.09;;;-144.06;52.49
11017;BME280;54687;50.800;6.772;2023-04-02T12:12:41;61086.63;;;-144.06;52.63
11017;BME280;54687;50.800;6.772;2023-04-02T12:15:30;61067.75;;;-144.06;51.88
11017;BME280;54687;50.800;6.772;2023-04-02T12:18:03;61080.34;;;-144.06;51.68
11017;BME280;54687;50.800;6.772;2023-04-02T12:20:32;61080.34;;;-144.06;52.00
11017;BME280;54687;50.800;6.772;2023-04-02T12:22:59;61051.00;;;-144.06;51.97
11017;BME280;54687;50.800;6.772;2023-04-02T12:25:29;61078.25;;;-144.06;52.30
11017;BME280;54687;50.800;6.772;2023-04-02T12:28:05;61078.25;;;-144.06;51.88
11017;BME280;54687;50.800;6.772;2023-04-02T12:30:34;61080.34;;;-144.06;52.02
11017;BME280;54687;50.800;6.772;2023-04-02T12:33:24;61113.88;;;-144.06;51.95
11017;BME280;54687;50.800;6.772;2023-04-02T12:35:55;61067.75;;;-144.06;51.43
11017;BME280;54687;50.800;6.772;2023-04-02T12:38:24;61074.03;;;-144.06;51.65
11017;BME280;54687;50.800;6.772;2023-04-02T12:40:53;61078.25;;;-144.06;51.38
11017;BME280;54687;50.800;6.772;2023-04-02T12:43:25;61082.44;;;-144.06;51.10
11017;BME280;54687;50.800;6.772;2023-04-02T12:45:53;61055.19;;;-144.06;50.82
11017;BME280;54687;50.800;6.772;2023-04-02T12:48:21;61099.19;;;-144.06;50.78
11017;BME280;54687;50.800;6.772;2023-04-02T12:50:49;61046.78;;;-144.06;50.55
11017;BME280;54687;50.800;6.772;2023-04-02T12:53:29;61076.13;;;-144.06;50.39
11017;BME280;54687;50.800;6.772;2023-04-02T12:55:59;61109.69;;;-144.06;50.28
11017;BME280;54687;50.800;6.772;2023-04-02T12:58:29;61061.47;;;-144.06;50.35
11017;BME280;54687;50.800;6.772;2023-04-02T13:01:11;61048.88;;;-144.06;49.79
11017;BME280;54687;50.800;6.772;2023-04-02T13:03:38;61053.09;;;-144.06;49.73
11017;BME280;54687;50.800;6.772;2023-04-02T13:06:19;61055.19;;;-144.06;50.07
11017;BME280;54687;50.800;6.772;2023-04-02T13:08:47;61076.13;;;-144.06;49.80
11017;BME280;54687;50.800;6.772;2023-04-02T13:11:16;61078.25;;;-144.06;49.81
11017;BME280;54687;50.800;6.772;2023-04-02T13:13:44;61065.66;;;-144.06;49.67
11017;BME280;54687;50.800;6.772;2023-04-02T13:16:27;61080.34;;;-144.06;50.31
11017;BME280;54687;50.800;6.772;2023-04-02T13:19:10;61061.47;;;-144.06;50.28